createdAt,value
2018-05-15T00:01:57.588Z,20.17
2018-05-15T00:04:27.920Z,15.37
2018-05-15T00:06:59.572Z,16.97
2018-05-15T00:09:31.463Z,22.20
2018-05-15T00:12:03.122Z,15.27
2018-05-15T00:14:35.226Z,14.27
2018-05-15T00:17:05.680Z,14.50
2018-05-15T00:19:37.615Z,18.10
2018-05-15T00:22:11.371Z,19.63
2018-05-15T00:24:41.608Z,17.30
2018-05-15T00:27:13.180Z,21.57
2018-05-15T00:29:43.653Z,29.00
2018-05-15T00:32:13.480Z,22.98
2018-05-15T00:34:45.723Z,25.53
2018-05-15T00:37:15.634Z,22.37
2018-05-15T00:39:45.456Z,22.90
2018-05-15T00:42:16.813Z,20.97
2018-05-15T00:44:48.535Z,23.67
2018-05-15T00:47:19.046Z,23.23
2018-05-15T00:49:50.759Z,22.17
2018-05-15T00:52:23.478Z,21.27
2018-05-15T00:57:54.592Z,21.67
2018-05-15T01:00:26.310Z,20.20
2018-05-15T01:02:56.860Z,25.10
2018-05-15T01:05:28.708Z,36.33
2018-05-15T01:08:01.396Z,30.90
2018-05-15T01:10:33.213Z,38.95
2018-05-15T01:13:03.068Z,34.78
2018-05-15T01:15:32.721Z,33.50
2018-05-15T01:18:02.528Z,32.50
2018-05-15T01:20:32.180Z,30.55
2018-05-15T01:23:02.786Z,31.20
2018-05-15T01:25:34.681Z,26.90
2018-05-15T01:28:05.130Z,27.00
2018-05-15T01:30:34.705Z,27.17
2018-05-15T01:33:07.316Z,26.73
2018-05-15T01:35:37.473Z,23.58
2018-05-15T01:38:09.374Z,24.70
2018-05-15T01:40:39.805Z,26.15
2018-05-15T01:43:10.786Z,33.65
2018-05-15T01:45:40.429Z,22.50
2018-05-15T01:48:12.375Z,21.60
2018-05-15T01:50:43.397Z,33.47
2018-05-15T01:53:13.042Z,23.48
2018-05-15T01:55:44.679Z,23.85
2018-05-15T01:58:14.481Z,19.33
2018-05-15T02:00:44.085Z,29.60
2018-05-15T02:03:15.939Z,29.23
2018-05-15T02:05:45.723Z,21.70
2018-05-15T02:08:15.606Z,16.67
2018-05-15T02:10:48.228Z,21.85
2018-05-15T02:13:20.007Z,26.60
2018-05-15T02:15:50.828Z,27.77
2018-05-15T02:18:22.254Z,18.20
2018-05-15T02:20:53.911Z,21.52
2018-05-15T02:23:24.136Z,26.55
2018-05-15T02:25:55.210Z,28.70
2018-05-15T02:28:24.899Z,25.05
2018-05-15T02:30:57.313Z,18.90
2018-05-15T02:33:29.004Z,25.00
2018-05-15T02:35:59.425Z,19.75
2018-05-15T02:38:31.153Z,23.58
2018-05-15T02:41:01.899Z,26.00
2018-05-15T02:43:31.641Z,23.85
2018-05-15T02:46:02.038Z,19.23
2018-05-15T02:48:31.873Z,21.85
2018-05-15T02:51:03.527Z,23.27
2018-05-15T02:53:35.251Z,27.10
2018-05-15T02:56:04.987Z,25.25
2018-05-15T02:58:35.475Z,22.67
2018-05-15T03:01:05.237Z,27.33
2018-05-15T03:03:34.976Z,18.42
2018-05-15T03:06:05.347Z,20.08
2018-05-15T03:08:37.391Z,26.62
2018-05-15T03:11:09.765Z,24.45
2018-05-15T03:13:39.553Z,27.08
2018-05-15T03:16:09.281Z,23.90
2018-05-15T03:18:38.852Z,28.15
2018-05-15T03:21:10.533Z,27.77
2018-05-15T03:23:40.676Z,22.90
2018-05-15T03:26:12.394Z,24.25
2018-05-15T03:28:44.157Z,30.37
2018-05-15T03:31:16.063Z,18.15
2018-05-15T03:33:45.789Z,20.65
2018-05-15T03:36:18.301Z,29.98
2018-05-15T03:38:49.347Z,35.95
2018-05-15T03:41:21.570Z,25.75
2018-05-15T03:43:52.140Z,21.60
2018-05-15T03:46:21.865Z,19.35
2018-05-15T03:48:52.608Z,22.90
2018-05-15T03:51:24.484Z,26.17
2018-05-15T03:53:56.372Z,22.23
2018-05-15T03:56:28.905Z,18.95
2018-05-15T03:58:58.594Z,11.65
2018-05-15T04:01:39.990Z,16.62
2018-05-15T04:04:21.278Z,13.48
2018-05-15T04:07:02.577Z,20.83
2018-05-15T04:09:32.192Z,15.10
2018-05-15T04:12:04.367Z,15.40
2018-05-15T04:14:34.755Z,13.40
2018-05-15T04:17:04.471Z,13.18
2018-05-15T04:19:35.206Z,11.80
2018-05-15T04:22:06.389Z,17.65
2018-05-15T04:24:36.937Z,15.20
2018-05-15T04:27:10.103Z,16.02
2018-05-15T04:29:42.850Z,18.92
2018-05-15T04:32:14.419Z,18.85
2018-05-15T04:34:44.875Z,27.25
2018-05-15T04:37:17.639Z,12.13
2018-05-15T04:39:50.174Z,16.58
2018-05-15T04:42:20.496Z,10.53
2018-05-15T04:44:50.175Z,13.83
2018-05-15T04:47:20.932Z,15.97
2018-05-15T04:49:51.571Z,15.00
2018-05-15T04:52:21.516Z,12.83
2018-05-15T04:54:53.368Z,17.73
2018-05-15T04:57:23.336Z,12.17
2018-05-15T04:59:55.160Z,13.17
2018-05-15T05:02:27.897Z,17.40
2018-05-15T05:04:59.861Z,21.80
2018-05-15T05:07:30.484Z,12.73
2018-05-15T05:10:02.439Z,11.37
2018-05-15T05:12:34.371Z,20.53
2018-05-15T05:15:08.038Z,12.40
2018-05-15T05:17:38.060Z,9.70
2018-05-15T05:20:10.102Z,11.13
2018-05-15T05:22:39.778Z,15.70
2018-05-15T05:25:11.805Z,10.60
2018-05-15T05:27:43.963Z,10.60
2018-05-15T05:30:13.579Z,10.23
2018-05-15T05:32:45.551Z,8.57
2018-05-15T05:35:17.499Z,14.23
2018-05-15T05:37:47.393Z,8.50
2018-05-15T05:40:19.139Z,9.47
2018-05-15T05:42:51.871Z,8.70
2018-05-15T05:45:24.018Z,9.37
2018-05-15T05:47:54.972Z,10.43
2018-05-15T05:50:26.711Z,7.97
2018-05-15T05:52:57.020Z,7.50
2018-05-15T05:55:28.610Z,8.27
2018-05-15T05:57:59.986Z,10.93
2018-05-15T06:00:31.559Z,10.40
2018-05-15T06:03:03.461Z,7.10
2018-05-15T06:05:34.549Z,8.33
2018-05-15T06:08:06.618Z,6.97
2018-05-15T06:10:38.813Z,8.17
2018-05-15T06:13:10.435Z,10.57
2018-05-15T06:15:40.358Z,7.57
2018-05-15T06:18:11.236Z,8.27
2018-05-15T06:20:43.131Z,8.60
2018-05-15T06:23:14.054Z,11.03
2018-05-15T06:25:44.140Z,7.40
2018-05-15T06:28:16.345Z,10.83
2018-05-15T06:30:48.320Z,7.77
2018-05-15T06:33:19.201Z,6.77
2018-05-15T06:35:49.941Z,6.33
2018-05-15T06:38:21.651Z,7.17
2018-05-15T06:40:54.728Z,9.13
2018-05-15T06:43:26.291Z,9.33
2018-05-15T06:45:57.127Z,7.43
2018-05-15T06:48:28.655Z,9.40
2018-05-15T06:50:58.523Z,5.47
2018-05-15T06:53:28.373Z,5.20
2018-05-15T06:56:00.012Z,7.40
2018-05-15T06:58:30.802Z,7.83
2018-05-15T07:01:03.533Z,7.30
2018-05-15T07:03:35.431Z,5.80
2018-05-15T07:06:08.323Z,12.97
2018-05-15T07:08:39.811Z,12.47
2018-05-15T07:11:11.728Z,5.37
2018-05-15T07:13:43.182Z,9.47
2018-05-15T07:16:15.737Z,10.93
2018-05-15T07:18:45.880Z,6.93
2018-05-15T07:21:16.556Z,8.83
2018-05-15T07:23:47.457Z,5.90
2018-05-15T07:26:19.126Z,7.03
2018-05-15T07:28:51.208Z,6.23
2018-05-15T07:31:20.926Z,6.10
2018-05-15T07:33:50.578Z,7.70
2018-05-15T07:36:23.262Z,4.83
2018-05-15T07:38:53.669Z,8.57
2018-05-15T07:41:25.408Z,5.23
2018-05-15T07:43:55.601Z,8.10
2018-05-15T07:46:27.714Z,4.83
2018-05-15T07:48:59.939Z,9.63
2018-05-15T07:51:31.676Z,7.33
2018-05-15T07:56:44.996Z,4.50
2018-05-15T07:59:16.124Z,6.27
2018-05-15T08:01:47.300Z,5.10
2018-05-15T08:04:17.873Z,5.53
2018-05-15T08:06:48.946Z,7.03
2018-05-15T08:09:18.759Z,7.63
2018-05-15T08:11:48.700Z,4.33
2018-05-15T08:14:20.542Z,8.93
2018-05-15T08:17:03.146Z,6.27
2018-05-15T08:19:35.893Z,11.37
2018-05-15T08:22:06.308Z,11.43
2018-05-15T08:24:36.208Z,8.30
2018-05-15T08:27:08.620Z,5.37
2018-05-15T08:29:38.879Z,6.57
2018-05-15T08:32:10.849Z,8.23
2018-05-15T08:34:41.672Z,9.53
2018-05-15T08:37:13.649Z,7.70
2018-05-15T08:39:44.013Z,7.93
2018-05-15T08:42:16.901Z,8.13
2018-05-15T08:44:46.560Z,6.60
2018-05-15T08:47:17.003Z,7.73
2018-05-15T08:49:47.392Z,5.33
2018-05-15T08:52:19.407Z,10.07
2018-05-15T08:54:49.295Z,5.30
2018-05-15T08:57:19.521Z,6.50
2018-05-15T08:59:52.389Z,14.53
2018-05-15T09:02:24.521Z,4.27
2018-05-15T09:04:55.646Z,10.73
2018-05-15T09:07:25.427Z,6.80
2018-05-15T09:09:58.811Z,8.47
2018-05-15T09:12:30.587Z,6.27
2018-05-15T09:15:01.150Z,5.60
2018-05-15T09:17:32.220Z,6.73
2018-05-15T09:20:03.191Z,6.93
2018-05-15T09:22:33.585Z,4.47
2018-05-15T09:25:03.273Z,5.63
2018-05-15T09:27:32.918Z,3.50
2018-05-15T09:30:05.086Z,3.67
2018-05-15T09:32:36.205Z,13.03
2018-05-15T09:35:07.197Z,7.43
2018-05-15T09:37:36.946Z,5.27
2018-05-15T09:40:07.949Z,8.27
2018-05-15T09:42:40.393Z,4.50
2018-05-15T09:45:12.583Z,5.43
2018-05-15T09:47:45.573Z,13.20
2018-05-15T09:50:15.968Z,4.33
2018-05-15T09:52:48.407Z,8.20
2018-05-15T09:55:20.319Z,4.33
2018-05-15T09:57:50.295Z,5.37
2018-05-15T10:00:26.540Z,5.63
2018-05-15T10:03:06.408Z,4.13
2018-05-15T10:05:38.209Z,6.30
2018-05-15T10:08:16.041Z,6.80
2018-05-15T10:10:46.112Z,7.13
2018-05-15T10:13:18.981Z,3.97
2018-05-15T10:15:54.946Z,2.97
2018-05-15T10:18:26.818Z,5.30
2018-05-15T10:21:04.271Z,5.00
2018-05-15T10:23:42.683Z,3.80
2018-05-15T10:26:13.773Z,3.77
2018-05-15T10:28:45.401Z,5.93
2018-05-15T10:31:15.028Z,6.57
2018-05-15T10:33:46.771Z,5.63
2018-05-15T10:36:20.169Z,4.20
2018-05-15T10:38:51.400Z,12.30
2018-05-15T10:41:22.325Z,7.70
2018-05-15T10:43:54.339Z,4.33
2018-05-15T10:46:25.117Z,6.00
2018-05-15T10:48:54.926Z,4.77
2018-05-15T10:51:27.653Z,5.17
2018-05-15T10:53:57.261Z,3.17
2018-05-15T10:56:27.789Z,4.13
2018-05-15T10:58:58.477Z,8.57
2018-05-15T11:01:30.536Z,3.30
2018-05-15T11:04:00.463Z,5.23
2018-05-15T11:06:31.128Z,7.97
2018-05-15T11:09:02.931Z,7.20
2018-05-15T11:11:33.503Z,6.57
2018-05-15T11:14:03.430Z,8.10
2018-05-15T11:16:34.940Z,5.03
2018-05-15T11:19:16.451Z,6.03
2018-05-15T11:21:57.734Z,5.77
2018-05-15T11:24:49.996Z,4.80
